Terminal Aerodrome Forecast
Issued by NWS

Home | Current Version | Previous Version | Text Only | Print | Product List | Glossary On
Versions: 1 2 3 4 5 6 7 8 9 10 11 12 13 14 15
000
FTPQ31 PGUM 190520
TAFTYA
TAF
PTYA 190520Z 1906/2006 05009KT P6SM VCTS BKN016CB OVC120
      TEMPO 1906/1909 07012G22KT 3SM +SHRA OVC016
     FM191100 07008KT P6SM VCSH SCT016 SCT030 BKN130=

USA.gov is the U.S. government's official web portal to all federal, state and local government web resources and services.